sensor_id;sensor_type;location;lat;lon;timestamp;P1;durP1;ratioP1;P2;durP2;ratioP2
31210;SDS011;17836;50.948;3.946;2023-10-31T00:01:25;17.08;;;12.80;;
31210;SDS011;17836;50.948;3.946;2023-10-31T00:03:51;20.07;;;14.03;;
31210;SDS011;17836;50.948;3.946;2023-10-31T00:06:16;16.37;;;13.03;;
31210;SDS011;17836;50.948;3.946;2023-10-31T00:08:41;13.70;;;10.90;;
31210;SDS011;17836;50.948;3.946;2023-10-31T00:11:06;11.95;;;9.93;;
31210;SDS011;17836;50.948;3.946;2023-10-31T00:13:34;13.52;;;10.48;;
31210;SDS011;17836;50.948;3.946;2023-10-31T00:16:00;9.45;;;8.00;;
31210;SDS011;17836;50.948;3.946;2023-10-31T00:18:25;9.83;;;8.93;;
31210;SDS011;17836;50.948;3.946;2023-10-31T00:20:53;11.10;;;9.23;;
31210;SDS011;17836;50.948;3.946;2023-10-31T00:23:19;13.15;;;9.27;;
31210;SDS011;17836;50.948;3.946;2023-10-31T00:25:44;11.30;;;8.67;;
31210;SDS011;17836;50.948;3.946;2023-10-31T00:28:09;13.90;;;9.23;;
31210;SDS011;17836;50.948;3.946;2023-10-31T00:30:38;9.52;;;8.68;;
31210;SDS011;17836;50.948;3.946;2023-10-31T00:33:03;12.93;;;9.88;;
31210;SDS011;17836;50.948;3.946;2023-10-31T00:35:28;11.27;;;9.30;;
31210;SDS011;17836;50.948;3.946;2023-10-31T00:37:53;10.67;;;9.43;;
31210;SDS011;17836;50.948;3.946;2023-10-31T00:40:19;10.50;;;9.60;;
31210;SDS011;17836;50.948;3.946;2023-10-31T00:42:44;10.95;;;9.90;;
31210;SDS011;17836;50.948;3.946;2023-10-31T00:45:10;12.40;;;10.00;;
31210;SDS011;17836;50.948;3.946;2023-10-31T00:47:35;11.35;;;10.30;;
31210;SDS011;17836;50.948;3.946;2023-10-31T00:50:03;12.55;;;11.32;;
31210;SDS011;17836;50.948;3.946;2023-10-31T00:52:28;12.88;;;11.68;;
31210;SDS011;17836;50.948;3.946;2023-10-31T00:54:53;14.00;;;12.53;;
31210;SDS011;17836;50.948;3.946;2023-10-31T00:57:19;13.75;;;12.32;;
31210;SDS011;17836;50.948;3.946;2023-10-31T01:02:52;15.82;;;14.23;;
31210;SDS011;17836;50.948;3.946;2023-10-31T01:05:18;17.92;;;14.18;;
31210;SDS011;17836;50.948;3.946;2023-10-31T01:07:43;18.15;;;14.35;;
31210;SDS011;17836;50.948;3.946;2023-10-31T01:10:08;14.20;;;12.80;;
31210;SDS011;17836;50.948;3.946;2023-10-31T01:12:34;16.25;;;14.60;;
31210;SDS011;17836;50.948;3.946;2023-10-31T01:14:59;16.55;;;14.43;;
31210;SDS011;17836;50.948;3.946;2023-10-31T01:17:24;15.57;;;13.80;;
31210;SDS011;17836;50.948;3.946;2023-10-31T01:19:50;15.10;;;12.63;;
31210;SDS011;17836;50.948;3.946;2023-10-31T01:22:15;13.10;;;11.90;;
31210;SDS011;17836;50.948;3.946;2023-10-31T01:24:43;15.23;;;12.43;;
31210;SDS011;17836;50.948;3.946;2023-10-31T01:27:08;14.17;;;12.70;;
31210;SDS011;17836;50.948;3.946;2023-10-31T01:29:33;12.63;;;11.53;;
31210;SDS011;17836;50.948;3.946;2023-10-31T01:31:59;11.97;;;10.80;;
31210;SDS011;17836;50.948;3.946;2023-10-31T01:34:24;12.68;;;11.32;;
31210;SDS011;17836;50.948;3.946;2023-10-31T01:36:49;14.30;;;11.15;;
31210;SDS011;17836;50.948;3.946;2023-10-31T01:39:15;11.63;;;10.50;;
31210;SDS011;17836;50.948;3.946;2023-10-31T01:41:43;10.93;;;9.80;;
31210;SDS011;17836;50.948;3.946;2023-10-31T01:44:09;11.18;;;10.23;;
31210;SDS011;17836;50.948;3.946;2023-10-31T01:46:34;12.13;;;9.82;;
31210;SDS011;17836;50.948;3.946;2023-10-31T01:49:02;10.87;;;9.67;;
31210;SDS011;17836;50.948;3.946;2023-10-31T01:51:30;10.73;;;9.63;;
31210;SDS011;17836;50.948;3.946;2023-10-31T01:53:55;10.43;;;8.55;;
31210;SDS011;17836;50.948;3.946;2023-10-31T01:56:23;10.55;;;9.55;;
31210;SDS011;17836;50.948;3.946;2023-10-31T01:58:51;9.50;;;8.30;;
31210;SDS011;17836;50.948;3.946;2023-10-31T02:01:17;9.75;;;8.05;;
31210;SDS011;17836;50.948;3.946;2023-10-31T02:03:43;10.73;;;8.07;;
31210;SDS011;17836;50.948;3.946;2023-10-31T02:06:08;9.53;;;8.20;;
31210;SDS011;17836;50.948;3.946;2023-10-31T02:08:33;8.43;;;7.53;;
31210;SDS011;17836;50.948;3.946;2023-10-31T02:10:59;7.68;;;6.57;;
31210;SDS011;17836;50.948;3.946;2023-10-31T02:13:27;7.55;;;5.90;;
31210;SDS011;17836;50.948;3.946;2023-10-31T02:18:27;6.72;;;5.70;;
31210;SDS011;17836;50.948;3.946;2023-10-31T02:20:52;7.13;;;5.68;;
31210;SDS011;17836;50.948;3.946;2023-10-31T02:23:20;5.75;;;5.00;;
31210;SDS011;17836;50.948;3.946;2023-10-31T02:25:45;5.33;;;4.70;;
31210;SDS011;17836;50.948;3.946;2023-10-31T02:28:13;15.20;;;4.10;;
31210;SDS011;17836;50.948;3.946;2023-10-31T02:30:40;4.33;;;3.63;;
31210;SDS011;17836;50.948;3.946;2023-10-31T02:33:05;6.15;;;4.18;;
31210;SDS011;17836;50.948;3.946;2023-10-31T02:35:33;6.53;;;3.90;;
31210;SDS011;17836;50.948;3.946;2023-10-31T02:37:58;6.03;;;4.18;;
31210;SDS011;17836;50.948;3.946;2023-10-31T02:40:23;4.03;;;3.63;;
31210;SDS011;17836;50.948;3.946;2023-10-31T02:42:49;5.20;;;3.92;;
31210;SDS011;17836;50.948;3.946;2023-10-31T02:45:14;8.47;;;3.83;;
31210;SDS011;17836;50.948;3.946;2023-10-31T02:47:40;6.18;;;3.78;;
31210;SDS011;17836;50.948;3.946;2023-10-31T02:50:07;4.68;;;4.28;;
31210;SDS011;17836;50.948;3.946;2023-10-31T02:52:35;5.60;;;3.92;;
31210;SDS011;17836;50.948;3.946;2023-10-31T02:55:01;3.83;;;3.47;;
31210;SDS011;17836;50.948;3.946;2023-10-31T02:57:26;5.18;;;3.95;;
31210;SDS011;17836;50.948;3.946;2023-10-31T02:59:52;5.05;;;3.75;;
31210;SDS011;17836;50.948;3.946;2023-10-31T03:02:17;6.23;;;4.30;;
31210;SDS011;17836;50.948;3.946;2023-10-31T03:04:42;7.70;;;3.73;;
31210;SDS011;17836;50.948;3.946;2023-10-31T03:07:08;5.10;;;3.63;;
31210;SDS011;17836;50.948;3.946;2023-10-31T03:09:33;7.20;;;4.67;;
31210;SDS011;17836;50.948;3.946;2023-10-31T03:12:01;4.93;;;4.47;;
31210;SDS011;17836;50.948;3.946;2023-10-31T03:14:26;5.90;;;5.03;;
31210;SDS011;17836;50.948;3.946;2023-10-31T03:16:51;6.53;;;5.80;;
31210;SDS011;17836;50.948;3.946;2023-10-31T03:19:17;7.63;;;6.47;;
31210;SDS011;17836;50.948;3.946;2023-10-31T03:21:42;5.93;;;5.33;;
31210;SDS011;17836;50.948;3.946;2023-10-31T03:24:10;9.00;;;5.80;;
31210;SDS011;17836;50.948;3.946;2023-10-31T03:26:35;7.32;;;6.15;;
31210;SDS011;17836;50.948;3.946;2023-10-31T03:29:03;6.45;;;5.85;;
31210;SDS011;17836;50.948;3.946;2023-10-31T03:31:28;6.38;;;5.45;;
31210;SDS011;17836;50.948;3.946;2023-10-31T03:33:53;6.30;;;5.70;;
31210;SDS011;17836;50.948;3.946;2023-10-31T03:36:19;6.05;;;5.03;;
31210;SDS011;17836;50.948;3.946;2023-10-31T03:38:46;6.10;;;5.60;;
31210;SDS011;17836;50.948;3.946;2023-10-31T03:41:12;7.75;;;4.97;;
31210;SDS011;17836;50.948;3.946;2023-10-31T03:43:38;5.85;;;5.13;;
31210;SDS011;17836;50.948;3.946;2023-10-31T03:46:06;5.97;;;5.40;;
31210;SDS011;17836;50.948;3.946;2023-10-31T03:48:31;5.43;;;4.93;;
31210;SDS011;17836;50.948;3.946;2023-10-31T03:50:56;6.22;;;5.63;;
31210;SDS011;17836;50.948;3.946;2023-10-31T03:53:22;6.88;;;5.30;;
31210;SDS011;17836;50.948;3.946;2023-10-31T03:55:47;6.43;;;4.88;;
31210;SDS011;17836;50.948;3.946;2023-10-31T03:58:12;5.00;;;4.60;;
31210;SDS011;17836;50.948;3.946;2023-10-31T04:00:38;6.18;;;5.63;;
31210;SDS011;17836;50.948;3.946;2023-10-31T04:03:04;5.65;;;5.15;;
31210;SDS011;17836;50.948;3.946;2023-10-31T04:05:29;5.93;;;5.40;;
31210;SDS011;17836;50.948;3.946;2023-10-31T04:07:57;6.10;;;5.53;;
31210;SDS011;17836;50.948;3.946;2023-10-31T04:10:24;6.38;;;5.78;;
31210;SDS011;17836;50.948;3.946;2023-10-31T04:12:50;6.78;;;5.28;;
31210;SDS011;17836;50.948;3.946;2023-10-31T04:15:18;14.57;;;6.28;;
31210;SDS011;17836;50.948;3.946;2023-10-31T04:17:43;6.25;;;5.43;;
31210;SDS011;17836;50.948;3.946;2023-10-31T04:20:10;5.80;;;5.30;;
31210;SDS011;17836;50.948;3.946;2023-10-31T04:22:38;5.65;;;5.15;;
31210;SDS011;17836;50.948;3.946;2023-10-31T04:25:04;6.60;;;5.30;;
31210;SDS011;17836;50.948;3.946;2023-10-31T04:27:30;5.70;;;5.22;;
31210;SDS011;17836;50.948;3.946;2023-10-31T04:29:57;6.07;;;5.57;;
31210;SDS011;17836;50.948;3.946;2023-10-31T04:32:24;6.53;;;6.00;;
31210;SDS011;17836;50.948;3.946;2023-10-31T04:34:50;11.90;;;6.15;;
31210;SDS011;17836;50.948;3.946;2023-10-31T04:37:16;7.43;;;6.53;;
31210;SDS011;17836;50.948;3.946;2023-10-31T04:39:41;7.97;;;7.22;;
31210;SDS011;17836;50.948;3.946;2023-10-31T04:42:06;9.10;;;8.30;;
31210;SDS011;17836;50.948;3.946;2023-10-31T04:44:32;9.70;;;8.73;;
31210;SDS011;17836;50.948;3.946;2023-10-31T04:46:59;11.25;;;9.73;;
31210;SDS011;17836;50.948;3.946;2023-10-31T04:49:24;14.85;;;11.02;;
31210;SDS011;17836;50.948;3.946;2023-10-31T04:51:50;11.30;;;10.30;;
31210;SDS011;17836;50.948;3.946;2023-10-31T04:54:15;13.37;;;10.57;;
31210;SDS011;17836;50.948;3.946;2023-10-31T04:56:40;15.30;;;10.50;;
31210;SDS011;17836;50.948;3.946;2023-10-31T04:59:08;11.52;;;10.30;;
31210;SDS011;17836;50.948;3.946;2023-10-31T05:01:34;12.45;;;11.02;;
31210;SDS011;17836;50.948;3.946;2023-10-31T05:03:59;15.82;;;10.93;;
31210;SDS011;17836;50.948;3.946;2023-10-31T05:06:24;12.40;;;10.83;;
31210;SDS011;17836;50.948;3.946;2023-10-31T05:08:50;12.77;;;9.93;;
31210;SDS011;17836;50.948;3.946;2023-10-31T05:11:18;12.07;;;10.57;;
31210;SDS011;17836;50.948;3.946;2023-10-31T05:13:44;12.48;;;11.18;;
31210;SDS011;17836;50.948;3.946;2023-10-31T05:16:09;12.60;;;11.30;;
31210;SDS011;17836;50.948;3.946;2023-10-31T05:18:37;13.93;;;12.52;;
31210;SDS011;17836;50.948;3.946;2023-10-31T05:21:03;13.32;;;11.77;;
31210;SDS011;17836;50.948;3.946;2023-10-31T05:23:29;17.08;;;12.20;;
31210;SDS011;17836;50.948;3.946;2023-10-31T05:25:54;14.47;;;12.03;;
31210;SDS011;17836;50.948;3.946;2023-10-31T05:28:22;17.08;;;13.02;;
31210;SDS011;17836;50.948;3.946;2023-10-31T05:30:48;14.30;;;12.50;;
31210;SDS011;17836;50.948;3.946;2023-10-31T05:33:16;13.27;;;11.32;;
31210;SDS011;17836;50.948;3.946;2023-10-31T05:35:42;13.40;;;12.07;;
31210;SDS011;17836;50.948;3.946;2023-10-31T05:38:07;14.05;;;12.30;;
31210;SDS011;17836;50.948;3.946;2023-10-31T05:40:33;15.13;;;12.02;;
31210;SDS011;17836;50.948;3.946;2023-10-31T05:43:00;16.35;;;12.88;;
31210;SDS011;17836;50.948;3.946;2023-10-31T05:45:25;17.10;;;13.25;;
31210;SDS011;17836;50.948;3.946;2023-10-31T05:47:53;14.90;;;13.20;;
31210;SDS011;17836;50.948;3.946;2023-10-31T05:50:21;14.30;;;12.80;;
31210;SDS011;17836;50.948;3.946;2023-10-31T05:52:48;16.00;;;12.77;;
31210;SDS011;17836;50.948;3.946;2023-10-31T05:55:14;16.67;;;12.57;;
31210;SDS011;17836;50.948;3.946;2023-10-31T05:57:39;14.93;;;13.43;;
31210;SDS011;17836;50.948;3.946;2023-10-31T06:00:05;16.55;;;13.88;;
31210;SDS011;17836;50.948;3.946;2023-10-31T06:02:30;14.25;;;12.85;;
31210;SDS011;17836;50.948;3.946;2023-10-31T06:04:56;14.35;;;12.80;;
31210;SDS011;17836;50.948;3.946;2023-10-31T06:07:21;15.00;;;13.50;;
31210;SDS011;17836;50.948;3.946;2023-10-31T06:09:46;16.10;;;13.77;;
31210;SDS011;17836;50.948;3.946;2023-10-31T06:12:14;17.93;;;14.67;;
31210;SDS011;17836;50.948;3.946;2023-10-31T06:14:42;19.98;;;13.93;;
31210;SDS011;17836;50.948;3.946;2023-10-31T06:17:11;18.77;;;14.82;;
31210;SDS011;17836;50.948;3.946;2023-10-31T06:19:36;20.25;;;14.98;;
31210;SDS011;17836;50.948;3.946;2023-10-31T06:22:05;20.92;;;14.32;;
31210;SDS011;17836;50.948;3.946;2023-10-31T06:24:31;17.77;;;14.30;;
31210;SDS011;17836;50.948;3.946;2023-10-31T06:27:01;16.37;;;14.63;;
31210;SDS011;17836;50.948;3.946;2023-10-31T06:29:26;17.25;;;15.50;;
31210;SDS011;17836;50.948;3.946;2023-10-31T06:31:52;17.65;;;14.68;;
31210;SDS011;17836;50.948;3.946;2023-10-31T06:34:17;16.23;;;14.57;;
31210;SDS011;17836;50.948;3.946;2023-10-31T06:36:42;18.87;;;14.27;;
31210;SDS011;17836;50.948;3.946;2023-10-31T06:39:10;16.08;;;14.38;;
31210;SDS011;17836;50.948;3.946;2023-10-31T06:41:35;17.02;;;15.32;;
31210;SDS011;17836;50.948;3.946;2023-10-31T06:44:00;17.98;;;16.05;;
31210;SDS011;17836;50.948;3.946;2023-10-31T06:46:31;19.65;;;16.75;;
31210;SDS011;17836;50.948;3.946;2023-10-31T06:48:56;23.10;;;17.92;;
31210;SDS011;17836;50.948;3.946;2023-10-31T06:51:21;22.97;;;17.63;;
31210;SDS011;17836;50.948;3.946;2023-10-31T06:53:47;25.67;;;18.98;;
31210;SDS011;17836;50.948;3.946;2023-10-31T06:56:12;23.20;;;18.17;;
31210;SDS011;17836;50.948;3.946;2023-10-31T06:58:37;22.60;;;19.07;;
31210;SDS011;17836;50.948;3.946;2023-10-31T07:01:03;26.08;;;19.52;;
31210;SDS011;17836;50.948;3.946;2023-10-31T07:03:29;24.98;;;19.63;;
31210;SDS011;17836;50.948;3.946;2023-10-31T07:05:54;27.25;;;20.17;;
31210;SDS011;17836;50.948;3.946;2023-10-31T07:08:21;21.95;;;17.77;;
31210;SDS011;17836;50.948;3.946;2023-10-31T07:10:49;27.25;;;20.20;;
31210;SDS011;17836;50.948;3.946;2023-10-31T07:13:17;27.95;;;21.48;;
31210;SDS011;17836;50.948;3.946;2023-10-31T07:15:45;26.05;;;19.88;;
31210;SDS011;17836;50.948;3.946;2023-10-31T07:18:11;29.63;;;21.10;;
31210;SDS011;17836;50.948;3.946;2023-10-31T07:20:41;31.55;;;20.90;;
31210;SDS011;17836;50.948;3.946;2023-10-31T07:23:06;37.03;;;22.42;;
31210;SDS011;17836;50.948;3.946;2023-10-31T07:25:32;28.40;;;20.70;;
31210;SDS011;17836;50.948;3.946;2023-10-31T07:27:57;28.17;;;21.60;;
31210;SDS011;17836;50.948;3.946;2023-10-31T07:30:22;27.83;;;19.45;;
31210;SDS011;17836;50.948;3.946;2023-10-31T07:32:47;28.30;;;20.50;;
31210;SDS011;17836;50.948;3.946;2023-10-31T07:35:13;24.73;;;19.93;;
31210;SDS011;17836;50.948;3.946;2023-10-31T07:37:38;26.77;;;19.77;;
31210;SDS011;17836;50.948;3.946;2023-10-31T07:40:03;22.97;;;18.70;;
31210;SDS011;17836;50.948;3.946;2023-10-31T07:42:29;27.17;;;20.48;;
31210;SDS011;17836;50.948;3.946;2023-10-31T07:44:56;22.45;;;17.90;;
31210;SDS011;17836;50.948;3.946;2023-10-31T07:47:22;25.70;;;18.97;;
31210;SDS011;17836;50.948;3.946;2023-10-31T07:49:50;24.35;;;18.45;;
31210;SDS011;17836;50.948;3.946;2023-10-31T07:52:15;28.92;;;20.48;;
31210;SDS011;17836;50.948;3.946;2023-10-31T07:54:41;21.60;;;17.70;;
31210;SDS011;17836;50.948;3.946;2023-10-31T07:57:06;18.13;;;16.35;;
31210;SDS011;17836;50.948;3.946;2023-10-31T07:59:37;18.52;;;15.55;;
31210;SDS011;17836;50.948;3.946;2023-10-31T08:02:02;17.88;;;16.02;;
31210;SDS011;17836;50.948;3.946;2023-10-31T08:04:28;16.38;;;14.75;;
31210;SDS011;17836;50.948;3.946;2023-10-31T08:06:54;21.40;;;14.98;;
31210;SDS011;17836;50.948;3.946;2023-10-31T08:09:20;15.75;;;13.30;;
31210;SDS011;17836;50.948;3.946;2023-10-31T08:11:45;13.23;;;12.03;;
31210;SDS011;17836;50.948;3.946;2023-10-31T08:14:10;15.13;;;12.80;;
31210;SDS011;17836;50.948;3.946;2023-10-31T08:16:40;14.05;;;12.63;;
31210;SDS011;17836;50.948;3.946;2023-10-31T08:19:08;13.30;;;11.90;;
31210;SDS011;17836;50.948;3.946;2023-10-31T08:21:35;14.63;;;11.37;;
31210;SDS011;17836;50.948;3.946;2023-10-31T08:24:03;12.43;;;10.73;;
31210;SDS011;17836;50.948;3.946;2023-10-31T08:26:29;11.85;;;10.07;;
31210;SDS011;17836;50.948;3.946;2023-10-31T08:28:57;11.70;;;10.23;;
31210;SDS011;17836;50.948;3.946;2023-10-31T08:31:22;10.73;;;9.73;;
31210;SDS011;17836;50.948;3.946;2023-10-31T08:33:48;10.77;;;9.20;;
31210;SDS011;17836;50.948;3.946;2023-10-31T08:36:13;10.00;;;8.77;;
31210;SDS011;17836;50.948;3.946;2023-10-31T08:38:38;10.57;;;9.17;;
31210;SDS011;17836;50.948;3.946;2023-10-31T08:41:06;10.05;;;9.05;;
31210;SDS011;17836;50.948;3.946;2023-10-31T08:43:34;10.20;;;8.40;;
31210;SDS011;17836;50.948;3.946;2023-10-31T08:46:02;14.48;;;10.02;;
31210;SDS011;17836;50.948;3.946;2023-10-31T08:48:27;9.90;;;8.50;;
31210;SDS011;17836;50.948;3.946;2023-10-31T08:50:52;9.30;;;7.97;;
31210;SDS011;17836;50.948;3.946;2023-10-31T08:53:20;9.88;;;8.63;;
31210;SDS011;17836;50.948;3.946;2023-10-31T08:55:45;11.60;;;8.40;;
31210;SDS011;17836;50.948;3.946;2023-10-31T08:58:11;9.15;;;8.07;;
31210;SDS011;17836;50.948;3.946;2023-10-31T09:00:38;8.98;;;8.07;;
31210;SDS011;17836;50.948;3.946;2023-10-31T09:03:03;13.02;;;8.70;;
31210;SDS011;17836;50.948;3.946;2023-10-31T09:05:28;9.50;;;8.52;;
31210;SDS011;17836;50.948;3.946;2023-10-31T09:07:53;8.27;;;7.40;;
31210;SDS011;17836;50.948;3.946;2023-10-31T09:10:21;11.03;;;7.80;;
31210;SDS011;17836;50.948;3.946;2023-10-31T09:12:46;7.80;;;6.93;;
31210;SDS011;17836;50.948;3.946;2023-10-31T09:15:12;9.70;;;7.07;;
31210;SDS011;17836;50.948;3.946;2023-10-31T09:17:38;9.32;;;6.70;;
31210;SDS011;17836;50.948;3.946;2023-10-31T09:20:06;12.27;;;7.60;;
31210;SDS011;17836;50.948;3.946;2023-10-31T09:22:33;9.75;;;6.45;;
31210;SDS011;17836;50.948;3.946;2023-10-31T09:24:58;6.60;;;6.00;;
31210;SDS011;17836;50.948;3.946;2023-10-31T09:27:23;9.25;;;6.50;;
31210;SDS011;17836;50.948;3.946;2023-10-31T09:29:49;6.50;;;5.83;;
31210;SDS011;17836;50.948;3.946;2023-10-31T09:32:17;10.63;;;5.65;;
31210;SDS011;17836;50.948;3.946;2023-10-31T09:34:43;8.02;;;6.53;;
31210;SDS011;17836;50.948;3.946;2023-10-31T09:37:08;8.90;;;6.03;;
31210;SDS011;17836;50.948;3.946;2023-10-31T09:39:33;10.80;;;5.68;;
31210;SDS011;17836;50.948;3.946;2023-10-31T09:41:59;6.03;;;5.43;;
31210;SDS011;17836;50.948;3.946;2023-10-31T09:44:24;6.88;;;5.40;;
31210;SDS011;17836;50.948;3.946;2023-10-31T09:46:51;6.57;;;5.10;;
31210;SDS011;17836;50.948;3.946;2023-10-31T09:49:19;5.50;;;4.88;;
31210;SDS011;17836;50.948;3.946;2023-10-31T09:51:45;6.97;;;5.50;;
31210;SDS011;17836;50.948;3.946;2023-10-31T09:54:11;6.60;;;5.90;;
31210;SDS011;17836;50.948;3.946;2023-10-31T09:56:40;6.78;;;5.65;;
31210;SDS011;17836;50.948;3.946;2023-10-31T09:59:06;7.75;;;5.75;;
31210;SDS011;17836;50.948;3.946;2023-10-31T10:01:31;11.05;;;5.05;;
31210;SDS011;17836;50.948;3.946;2023-10-31T10:03:56;10.50;;;5.10;;
31210;SDS011;17836;50.948;3.946;2023-10-31T10:06:22;7.78;;;4.43;;
31210;SDS011;17836;50.948;3.946;2023-10-31T10:08:48;6.10;;;4.50;;
31210;SDS011;17836;50.948;3.946;2023-10-31T10:11:14;10.65;;;4.75;;
31210;SDS011;17836;50.948;3.946;2023-10-31T10:13:39;7.85;;;5.15;;
31210;SDS011;17836;50.948;3.946;2023-10-31T10:16:04;7.82;;;4.63;;
31210;SDS011;17836;50.948;3.946;2023-10-31T10:18:31;7.53;;;5.20;;
31210;SDS011;17836;50.948;3.946;2023-10-31T10:20:57;6.20;;;5.53;;
31210;SDS011;17836;50.948;3.946;2023-10-31T10:23:23;10.27;;;6.43;;
31210;SDS011;17836;50.948;3.946;2023-10-31T10:25:49;8.13;;;5.35;;
31210;SDS011;17836;50.948;3.946;2023-10-31T10:28:14;6.43;;;4.93;;
31210;SDS011;17836;50.948;3.946;2023-10-31T10:30:40;16.17;;;6.43;;
31210;SDS011;17836;50.948;3.946;2023-10-31T10:33:06;10.25;;;5.47;;
31210;SDS011;17836;50.948;3.946;2023-10-31T10:35:32;7.33;;;5.67;;
31210;SDS011;17836;50.948;3.946;2023-10-31T10:37:59;9.63;;;6.72;;
31210;SDS011;17836;50.948;3.946;2023-10-31T10:40:24;8.75;;;6.22;;
31210;SDS011;17836;50.948;3.946;2023-10-31T10:42:51;8.50;;;6.55;;
31210;SDS011;17836;50.948;3.946;2023-10-31T10:47:49;11.98;;;7.15;;
31210;SDS011;17836;50.948;3.946;2023-10-31T10:50:20;11.57;;;7.40;;
31210;SDS011;17836;50.948;3.946;2023-10-31T10:55:39;10.85;;;7.20;;
31210;SDS011;17836;50.948;3.946;2023-10-31T10:58:05;11.68;;;6.97;;
31210;SDS011;17836;50.948;3.946;2023-10-31T11:00:33;11.60;;;9.30;;
31210;SDS011;17836;50.948;3.946;2023-10-31T11:03:02;8.38;;;6.72;;
31210;SDS011;17836;50.948;3.946;2023-10-31T11:05:30;9.48;;;7.63;;
31210;SDS011;17836;50.948;3.946;2023-10-31T11:07:56;10.60;;;8.10;;
31210;SDS011;17836;50.948;3.946;2023-10-31T11:10:24;9.07;;;8.15;;
31210;SDS011;17836;50.948;3.946;2023-10-31T11:12:50;9.75;;;8.65;;
31210;SDS011;17836;50.948;3.946;2023-10-31T11:15:16;13.68;;;9.35;;
31210;SDS011;17836;50.948;3.946;2023-10-31T11:17:42;10.35;;;9.20;;
31210;SDS011;17836;50.948;3.946;2023-10-31T11:20:09;10.55;;;9.55;;
31210;SDS011;17836;50.948;3.946;2023-10-31T11:22:39;18.55;;;9.95;;
31210;SDS011;17836;50.948;3.946;2023-10-31T11:25:06;11.38;;;9.45;;
31210;SDS011;17836;50.948;3.946;2023-10-31T11:27:33;12.55;;;10.07;;
31210;SDS011;17836;50.948;3.946;2023-10-31T11:29:59;12.82;;;9.57;;
31210;SDS011;17836;50.948;3.946;2023-10-31T11:32:26;14.00;;;9.60;;
31210;SDS011;17836;50.948;3.946;2023-10-31T11:34:52;13.52;;;10.30;;
31210;SDS011;17836;50.948;3.946;2023-10-31T11:37:18;12.95;;;10.88;;
31210;SDS011;17836;50.948;3.946;2023-10-31T11:39:44;12.20;;;10.63;;
31210;SDS011;17836;50.948;3.946;2023-10-31T11:42:28;12.80;;;9.20;;
31210;SDS011;17836;50.948;3.946;2023-10-31T11:44:56;12.80;;;9.75;;
31210;SDS011;17836;50.948;3.946;2023-10-31T11:47:22;10.60;;;9.27;;
31210;SDS011;17836;50.948;3.946;2023-10-31T11:49:47;12.43;;;8.77;;
31210;SDS011;17836;50.948;3.946;2023-10-31T11:52:18;17.60;;;11.07;;
31210;SDS011;17836;50.948;3.946;2023-10-31T11:57:09;12.17;;;9.93;;
31210;SDS011;17836;50.948;3.946;2023-10-31T11:59:38;13.13;;;10.00;;
31210;SDS011;17836;50.948;3.946;2023-10-31T12:02:14;12.60;;;9.30;;
31210;SDS011;17836;50.948;3.946;2023-10-31T12:04:39;10.77;;;9.20;;
31210;SDS011;17836;50.948;3.946;2023-10-31T12:07:08;12.05;;;9.68;;
31210;SDS011;17836;50.948;3.946;2023-10-31T12:09:33;9.73;;;8.52;;
31210;SDS011;17836;50.948;3.946;2023-10-31T12:12:10;11.27;;;10.00;;
31210;SDS011;17836;50.948;3.946;2023-10-31T12:14:35;11.65;;;9.77;;
31210;SDS011;17836;50.948;3.946;2023-10-31T12:17:03;10.57;;;9.13;;
31210;SDS011;17836;50.948;3.946;2023-10-31T12:19:31;10.75;;;9.65;;
31210;SDS011;17836;50.948;3.946;2023-10-31T12:21:57;13.30;;;10.45;;
31210;SDS011;17836;50.948;3.946;2023-10-31T12:24:22;11.40;;;9.80;;
31210;SDS011;17836;50.948;3.946;2023-10-31T12:26:50;13.68;;;9.30;;
31210;SDS011;17836;50.948;3.946;2023-10-31T12:29:18;14.85;;;10.27;;
31210;SDS011;17836;50.948;3.946;2023-10-31T12:31:50;12.18;;;9.88;;
31210;SDS011;17836;50.948;3.946;2023-10-31T12:34:17;11.45;;;8.68;;
31210;SDS011;17836;50.948;3.946;2023-10-31T12:36:43;9.93;;;8.05;;
31210;SDS011;17836;50.948;3.946;2023-10-31T12:39:10;12.13;;;7.95;;
31210;SDS011;17836;50.948;3.946;2023-10-31T12:41:35;13.50;;;8.20;;
31210;SDS011;17836;50.948;3.946;2023-10-31T12:44:01;10.43;;;7.10;;
31210;SDS011;17836;50.948;3.946;2023-10-31T12:48:53;8.65;;;6.70;;
31210;SDS011;17836;50.948;3.946;2023-10-31T12:51:19;9.55;;;6.10;;
31210;SDS011;17836;50.948;3.946;2023-10-31T12:53:51;6.55;;;5.55;;
31210;SDS011;17836;50.948;3.946;2023-10-31T12:59:04;5.30;;;4.55;;
31210;SDS011;17836;50.948;3.946;2023-10-31T13:01:30;7.78;;;4.60;;
31210;SDS011;17836;50.948;3.946;2023-10-31T13:03:58;5.28;;;4.78;;
31210;SDS011;17836;50.948;3.946;2023-10-31T13:06:24;6.63;;;4.43;;
31210;SDS011;17836;50.948;3.946;2023-10-31T13:08:54;6.47;;;4.28;;
31210;SDS011;17836;50.948;3.946;2023-10-31T13:11:26;5.90;;;4.20;;
31210;SDS011;17836;50.948;3.946;2023-10-31T13:13:53;4.25;;;3.85;;
31210;SDS011;17836;50.948;3.946;2023-10-31T13:16:19;3.25;;;2.78;;
31210;SDS011;17836;50.948;3.946;2023-10-31T13:18:44;4.50;;;3.35;;
31210;SDS011;17836;50.948;3.946;2023-10-31T13:21:09;3.40;;;3.10;;
31210;SDS011;17836;50.948;3.946;2023-10-31T13:23:36;4.00;;;3.35;;
31210;SDS011;17836;50.948;3.946;2023-10-31T13:26:09;3.03;;;2.45;;
31210;SDS011;17836;50.948;3.946;2023-10-31T13:28:34;2.83;;;1.90;;
31210;SDS011;17836;50.948;3.946;2023-10-31T13:31:00;2.88;;;2.40;;
31210;SDS011;17836;50.948;3.946;2023-10-31T13:33:25;4.37;;;1.97;;
31210;SDS011;17836;50.948;3.946;2023-10-31T13:35:51;3.58;;;2.15;;
31210;SDS011;17836;50.948;3.946;2023-10-31T13:38:18;3.88;;;2.60;;
31210;SDS011;17836;50.948;3.946;2023-10-31T13:40:47;6.75;;;5.95;;
31210;SDS011;17836;50.948;3.946;2023-10-31T13:43:13;6.82;;;6.18;;
31210;SDS011;17836;50.948;3.946;2023-10-31T13:45:38;6.85;;;2.95;;
31210;SDS011;17836;50.948;3.946;2023-10-31T13:48:03;3.80;;;1.80;;
31210;SDS011;17836;50.948;3.946;2023-10-31T13:50:29;5.10;;;2.22;;
31210;SDS011;17836;50.948;3.946;2023-10-31T13:52:55;3.20;;;2.00;;
31210;SDS011;17836;50.948;3.946;2023-10-31T13:55:21;4.30;;;2.50;;
31210;SDS011;17836;50.948;3.946;2023-10-31T13:57:48;2.88;;;1.95;;
31210;SDS011;17836;50.948;3.946;2023-10-31T14:00:15;15.38;;;8.52;;
31210;SDS011;17836;50.948;3.946;2023-10-31T14:02:40;3.47;;;3.15;;
31210;SDS011;17836;50.948;3.946;2023-10-31T14:05:06;6.38;;;4.38;;
31210;SDS011;17836;50.948;3.946;2023-10-31T14:07:31;6.45;;;3.13;;
31210;SDS011;17836;50.948;3.946;2023-10-31T14:09:59;8.75;;;3.67;;
31210;SDS011;17836;50.948;3.946;2023-10-31T14:12:24;4.57;;;3.42;;
31210;SDS011;17836;50.948;3.946;2023-10-31T14:14:52;9.30;;;4.75;;
31210;SDS011;17836;50.948;3.946;2023-10-31T14:17:20;4.18;;;3.78;;
31210;SDS011;17836;50.948;3.946;2023-10-31T14:19:47;6.43;;;4.53;;
31210;SDS011;17836;50.948;3.946;2023-10-31T14:22:15;6.20;;;3.42;;
31210;SDS011;17836;50.948;3.946;2023-10-31T14:24:41;6.90;;;4.22;;
31210;SDS011;17836;50.948;3.946;2023-10-31T14:27:06;7.20;;;4.70;;
31210;SDS011;17836;50.948;3.946;2023-10-31T14:29:34;5.45;;;4.13;;
31210;SDS011;17836;50.948;3.946;2023-10-31T14:32:11;7.57;;;4.40;;
31210;SDS011;17836;50.948;3.946;2023-10-31T14:34:36;8.25;;;4.28;;
31210;SDS011;17836;50.948;3.946;2023-10-31T14:37:04;6.17;;;3.90;;
31210;SDS011;17836;50.948;3.946;2023-10-31T14:39:31;6.63;;;4.28;;
31210;SDS011;17836;50.948;3.946;2023-10-31T14:41:56;14.93;;;4.45;;
31210;SDS011;17836;50.948;3.946;2023-10-31T14:44:22;8.70;;;4.43;;
31210;SDS011;17836;50.948;3.946;2023-10-31T14:46:49;5.25;;;3.80;;
31210;SDS011;17836;50.948;3.946;2023-10-31T14:49:15;6.53;;;3.65;;